createdAt,value
2022-12-11T00:00:08.356Z,12.99
2022-12-11T00:02:56.114Z,12.96
2022-12-11T00:05:23.449Z,12.86
2022-12-11T00:07:50.079Z,12.84
2022-12-11T00:10:16.618Z,12.88
2022-12-11T00:12:43.348Z,12.88
2022-12-11T00:15:10.498Z,12.83
2022-12-11T00:17:38.081Z,12.81
2022-12-11T00:20:04.990Z,12.80
2022-12-11T00:22:31.506Z,12.80
2022-12-11T00:24:58.147Z,12.71
2022-12-11T00:27:25.109Z,12.63
2022-12-11T00:29:51.609Z,12.51
2022-12-11T00:32:18.171Z,12.48
2022-12-11T00:34:44.830Z,12.42
2022-12-11T00:37:11.441Z,12.42
2022-12-11T00:39:39.280Z,12.45
2022-12-11T00:42:07.302Z,12.47
2022-12-11T00:44:34.194Z,12.44
2022-12-11T00:47:01.007Z,12.46
2022-12-11T00:49:27.547Z,12.51
2022-12-11T00:51:54.354Z,12.59
2022-12-11T00:54:20.862Z,12.67
2022-12-11T00:56:47.389Z,12.74
2022-12-11T00:59:13.965Z,12.78
2022-12-11T01:01:40.557Z,12.78
2022-12-11T01:04:07.539Z,12.74
2022-12-11T01:06:34.034Z,12.81
2022-12-11T01:09:19.556Z,12.78
2022-12-11T01:11:46.293Z,12.76
2022-12-11T01:14:13.864Z,12.79
2022-12-11T01:16:40.771Z,12.78
2022-12-11T01:19:07.577Z,12.79
2022-12-11T01:21:34.330Z,12.71
2022-12-11T01:24:00.974Z,12.62
2022-12-11T01:26:27.520Z,12.57
2022-12-11T01:28:54.191Z,12.62
2022-12-11T01:31:21.477Z,12.71
2022-12-11T01:33:48.168Z,12.79
2022-12-11T01:36:16.467Z,12.83
2022-12-11T01:38:43.504Z,12.85
2022-12-11T01:41:10.145Z,12.91
2022-12-11T01:43:55.530Z,12.93
2022-12-11T01:46:22.062Z,12.92
2022-12-11T01:48:48.689Z,12.96
2022-12-11T01:51:16.083Z,13.01
2022-12-11T01:53:45.238Z,13.05
2022-12-11T01:56:12.546Z,13.15
2022-12-11T01:58:59.747Z,13.19
2022-12-11T02:01:32.981Z,13.21
2022-12-11T02:04:00.550Z,13.22
2022-12-11T02:06:36.106Z,13.29
2022-12-11T02:09:04.977Z,13.39
2022-12-11T02:11:39.237Z,13.45
2022-12-11T02:14:12.801Z,13.48
2022-12-11T02:16:45.266Z,13.44
2022-12-11T02:19:21.345Z,13.37
2022-12-11T02:21:50.341Z,13.36
2022-12-11T02:24:22.844Z,13.25
2022-12-11T02:26:55.291Z,13.18
2022-12-11T02:29:25.554Z,13.01
2022-12-11T02:32:02.343Z,12.81
2022-12-11T02:34:34.577Z,12.72
2022-12-11T02:37:03.590Z,12.66
2022-12-11T02:39:31.708Z,12.60
2022-12-11T02:41:59.162Z,12.56
2022-12-11T02:44:29.594Z,12.46
2022-12-11T02:46:57.741Z,12.38
2022-12-11T02:49:26.168Z,12.29
2022-12-11T02:51:54.393Z,12.29
2022-12-11T02:54:24.844Z,12.27
2022-12-11T02:56:56.591Z,12.25
2022-12-11T02:59:30.104Z,12.20
2022-12-11T03:01:56.799Z,12.10
2022-12-11T03:04:24.439Z,12.00
2022-12-11T03:06:53.768Z,11.91
2022-12-11T03:09:20.844Z,11.82
2022-12-11T03:11:47.599Z,11.80
2022-12-11T03:14:14.223Z,11.79
2022-12-11T03:16:59.608Z,11.80
2022-12-11T03:19:31.978Z,11.83
2022-12-11T03:22:22.014Z,11.86
2022-12-11T03:24:51.360Z,11.91
2022-12-11T03:27:22.263Z,11.94
2022-12-11T03:29:55.180Z,11.95
2022-12-11T03:32:23.906Z,12.00
2022-12-11T03:34:58.156Z,12.11
2022-12-11T03:37:28.156Z,12.25
2022-12-11T03:39:58.670Z,12.34
2022-12-11T03:42:26.286Z,12.41
2022-12-11T03:44:54.333Z,12.43
2022-12-11T03:47:23.170Z,12.32
2022-12-11T03:49:51.870Z,12.28
2022-12-11T03:52:19.351Z,12.21
2022-12-11T03:54:48.559Z,12.17
2022-12-11T03:57:17.454Z,12.14
2022-12-11T03:59:44.726Z,12.14
2022-12-11T04:02:11.447Z,12.12
2022-12-11T04:04:39.374Z,12.09
2022-12-11T04:07:06.955Z,12.06
2022-12-11T04:09:33.695Z,12.03
2022-12-11T04:12:00.386Z,12.02
2022-12-11T04:14:45.777Z,12.03
2022-12-11T04:17:32.256Z,12.08
2022-12-11T04:20:17.609Z,12.17
2022-12-11T04:23:02.589Z,12.22
2022-12-11T04:25:29.223Z,12.26
2022-12-11T04:27:55.861Z,12.28
2022-12-11T04:30:23.292Z,12.38
2022-12-11T04:32:50.760Z,12.44
2022-12-11T04:35:17.560Z,12.45
2022-12-11T04:37:44.587Z,12.44
2022-12-11T04:40:13.454Z,12.39
2022-12-11T04:42:40.098Z,12.36
2022-12-11T04:45:08.014Z,12.30
2022-12-11T04:47:35.891Z,12.24
2022-12-11T04:50:03.314Z,12.27
2022-12-11T04:52:29.818Z,12.27
2022-12-11T04:54:56.430Z,12.26
2022-12-11T04:57:23.394Z,12.22
2022-12-11T04:59:50.115Z,12.20
2022-12-11T05:02:16.660Z,12.28
2022-12-11T05:04:43.398Z,12.32
2022-12-11T05:07:10.222Z,12.31
2022-12-11T05:09:37.003Z,12.38
2022-12-11T05:12:03.662Z,12.37
2022-12-11T05:14:31.852Z,12.26
2022-12-11T05:16:59.091Z,12.26
2022-12-11T05:19:26.477Z,12.29
2022-12-11T05:21:53.286Z,12.36
2022-12-11T05:24:20.014Z,12.43
2022-12-11T05:26:46.623Z,12.47
2022-12-11T05:29:13.254Z,12.50
2022-12-11T05:31:39.903Z,12.56
2022-12-11T05:34:06.433Z,12.58
2022-12-11T05:36:34.398Z,12.59
2022-12-11T05:39:01.406Z,12.46
2022-12-11T05:41:29.111Z,12.41
2022-12-11T05:43:55.948Z,12.43
2022-12-11T05:46:24.131Z,12.45
2022-12-11T05:48:52.344Z,12.45
2022-12-11T05:51:19.300Z,12.44
2022-12-11T05:53:49.197Z,12.49
2022-12-11T05:56:17.226Z,12.57
2022-12-11T05:58:44.393Z,12.61
2022-12-11T06:01:14.275Z,12.68
2022-12-11T06:03:40.917Z,12.70
2022-12-11T06:06:07.704Z,12.71
2022-12-11T06:08:34.708Z,12.70
2022-12-11T06:11:01.490Z,12.71
2022-12-11T06:13:28.488Z,12.70
2022-12-11T06:15:55.443Z,12.57
2022-12-11T06:18:22.063Z,12.23
2022-12-11T06:20:48.585Z,11.98
2022-12-11T06:23:15.092Z,11.90
2022-12-11T06:25:41.784Z,11.76
2022-12-11T06:28:08.593Z,11.74
2022-12-11T06:30:39.042Z,11.88
2022-12-11T06:33:06.353Z,12.05
2022-12-11T06:35:38.585Z,12.21
2022-12-11T06:38:08.857Z,12.37
2022-12-11T06:40:35.528Z,12.36
2022-12-11T06:43:02.955Z,12.38
2022-12-11T06:45:30.243Z,12.51
2022-12-11T06:47:57.739Z,12.73
2022-12-11T06:50:24.674Z,13.00
2022-12-11T06:52:51.475Z,13.17
2022-12-11T06:55:18.121Z,13.35
2022-12-11T06:57:44.740Z,13.49
2022-12-11T07:00:11.527Z,13.51
2022-12-11T07:02:38.282Z,13.37
2022-12-11T07:05:05.341Z,13.24
2022-12-11T07:07:32.018Z,13.20
2022-12-11T07:10:02.740Z,13.36
2022-12-11T07:12:34.660Z,13.44
2022-12-11T07:15:01.547Z,13.52
2022-12-11T07:17:28.597Z,13.66
2022-12-11T07:19:55.547Z,13.69
2022-12-11T07:22:22.077Z,13.52
2022-12-11T07:24:48.582Z,13.48
2022-12-11T07:27:15.252Z,13.46
2022-12-11T07:29:41.785Z,13.48
2022-12-11T07:32:08.533Z,13.55
2022-12-11T07:34:35.230Z,13.63
2022-12-11T07:37:01.800Z,13.71
2022-12-11T07:39:28.535Z,13.73
2022-12-11T07:41:55.284Z,13.58
2022-12-11T07:44:21.759Z,13.35
2022-12-11T07:46:48.770Z,13.17
2022-12-11T07:49:15.388Z,12.99
2022-12-11T07:51:42.567Z,12.88
2022-12-11T07:54:15.888Z,12.80
2022-12-11T07:56:44.070Z,12.75
2022-12-11T07:59:11.053Z,12.71
2022-12-11T08:01:38.437Z,12.76
2022-12-11T08:04:06.134Z,12.86
2022-12-11T08:06:34.863Z,12.87
2022-12-11T08:09:02.772Z,12.95
2022-12-11T08:11:29.632Z,13.12
2022-12-11T08:13:56.270Z,13.26
2022-12-11T08:16:23.219Z,13.23
2022-12-11T08:18:50.505Z,12.87
2022-12-11T08:21:19.083Z,12.43
2022-12-11T08:23:46.212Z,12.31
2022-12-11T08:26:33.452Z,12.33
2022-12-11T08:29:01.425Z,12.26
2022-12-11T08:31:28.552Z,12.27
2022-12-11T08:33:56.541Z,12.47
2022-12-11T08:36:23.265Z,12.44
2022-12-11T08:38:50.455Z,12.33
2022-12-11T08:41:19.007Z,12.13
2022-12-11T08:43:46.157Z,11.99
2022-12-11T08:46:13.100Z,12.06
2022-12-11T08:48:40.964Z,11.98
2022-12-11T08:51:09.915Z,12.06
2022-12-11T08:53:36.695Z,12.08
2022-12-11T08:56:04.310Z,12.11
2022-12-11T08:58:30.806Z,12.17
2022-12-11T09:00:57.507Z,12.13
2022-12-11T09:03:24.784Z,12.05
2022-12-11T09:05:51.520Z,11.78
2022-12-11T09:08:18.237Z,11.39
2022-12-11T09:10:44.842Z,11.05
2022-12-11T09:13:11.431Z,10.87
2022-12-11T09:15:40.031Z,10.78
2022-12-11T09:18:07.136Z,10.85
2022-12-11T09:20:34.003Z,11.00
2022-12-11T09:23:00.849Z,11.08
2022-12-11T09:25:27.425Z,11.19
2022-12-11T09:27:54.021Z,11.41
2022-12-11T09:30:21.171Z,11.63
2022-12-11T09:32:47.844Z,11.59
2022-12-11T09:35:14.387Z,11.28
2022-12-11T09:37:40.982Z,10.96
2022-12-11T09:40:09.533Z,10.48
2022-12-11T09:42:36.197Z,10.37
2022-12-11T09:45:04.173Z,10.59
2022-12-11T09:47:35.463Z,10.92
2022-12-11T09:50:20.813Z,11.28
2022-12-11T09:52:47.522Z,11.53
2022-12-11T09:55:16.206Z,11.81
2022-12-11T09:58:01.847Z,12.10
2022-12-11T10:00:31.911Z,12.21
2022-12-11T10:02:58.840Z,12.27
2022-12-11T10:05:33.745Z,12.31
2022-12-11T10:08:10.173Z,12.36
2022-12-11T10:10:46.783Z,12.24
2022-12-11T10:13:13.354Z,12.21
2022-12-11T10:16:00.711Z,12.05
2022-12-11T10:18:28.544Z,12.04
2022-12-11T10:20:56.427Z,11.83
2022-12-11T10:23:35.658Z,11.46
2022-12-11T10:26:02.350Z,11.27
2022-12-11T10:28:28.921Z,11.26
2022-12-11T10:30:58.783Z,11.47
2022-12-11T10:33:40.827Z,11.58
2022-12-11T10:36:08.795Z,11.65
2022-12-11T10:38:41.841Z,11.73
2022-12-11T10:41:13.329Z,11.62
2022-12-11T10:43:41.812Z,11.60
2022-12-11T10:46:25.699Z,11.58
2022-12-11T10:48:53.678Z,11.47
2022-12-11T10:51:34.404Z,11.30
2022-12-11T10:54:07.420Z,10.84
2022-12-11T10:56:35.554Z,10.39
2022-12-11T10:59:02.889Z,10.22
2022-12-11T11:01:31.205Z,10.04
2022-12-11T11:04:14.981Z,9.84
2022-12-11T11:06:41.766Z,9.31
2022-12-11T11:09:27.710Z,8.91
2022-12-11T11:11:54.212Z,8.65
2022-12-11T11:14:22.488Z,8.54
2022-12-11T11:16:50.101Z,8.37
2022-12-11T11:19:17.157Z,8.46
2022-12-11T11:21:48.362Z,8.48
2022-12-11T11:24:34.189Z,8.09
2022-12-11T11:27:16.496Z,7.89
2022-12-11T11:29:46.615Z,7.83
2022-12-11T11:32:21.859Z,7.99
2022-12-11T11:34:48.484Z,8.28
2022-12-11T11:37:35.585Z,8.55
2022-12-11T11:40:28.759Z,8.84
2022-12-11T11:43:14.722Z,8.85
2022-12-11T11:45:47.026Z,9.17
2022-12-11T11:48:25.540Z,9.34
2022-12-11T11:50:53.332Z,9.64
2022-12-11T11:53:37.397Z,9.80
2022-12-11T11:56:21.591Z,9.73
2022-12-11T11:58:48.270Z,9.80
2022-12-11T12:01:17.017Z,9.83
2022-12-11T12:03:44.732Z,9.91
2022-12-11T12:06:31.647Z,9.83
2022-12-11T12:09:12.409Z,9.88
2022-12-11T12:11:44.935Z,9.91
2022-12-11T12:17:35.550Z,9.93
2022-12-11T12:20:19.414Z,10.01
2022-12-11T12:22:56.372Z,10.16
2022-12-11T12:25:41.558Z,10.21
2022-12-11T12:28:13.871Z,9.89
2022-12-11T12:30:49.226Z,9.27
2022-12-11T12:33:25.498Z,8.47
2022-12-11T12:36:03.468Z,8.09
2022-12-11T12:38:38.882Z,7.97
2022-12-11T12:41:41.956Z,8.12
2022-12-11T12:44:15.940Z,8.20
2022-12-11T12:46:42.510Z,8.30
2022-12-11T12:49:12.115Z,8.21
2022-12-11T12:51:40.061Z,8.36
2022-12-11T12:54:12.346Z,8.56
2022-12-11T12:56:40.612Z,8.72
2022-12-11T12:59:18.201Z,8.68
2022-12-11T13:01:51.709Z,8.77
2022-12-11T13:04:54.330Z,8.79
2022-12-11T13:07:18.492Z,8.80
2022-12-11T13:09:55.713Z,8.81
2022-12-11T13:12:30.443Z,8.83
2022-12-11T13:14:57.214Z,8.67
2022-12-11T13:17:25.936Z,8.66
2022-12-11T13:20:11.297Z,8.78
2022-12-11T13:22:47.073Z,8.78
2022-12-11T13:25:22.317Z,8.61
2022-12-11T13:27:49.421Z,8.65
2022-12-11T13:30:16.223Z,8.76
2022-12-11T13:32:49.048Z,8.83
2022-12-11T13:35:17.210Z,8.81
2022-12-11T13:37:44.516Z,8.54
2022-12-11T13:40:14.273Z,8.23
2022-12-11T13:42:49.832Z,7.97
2022-12-11T13:45:22.498Z,7.83
2022-12-11T13:47:49.611Z,7.87
2022-12-11T13:50:20.189Z,7.93
2022-12-11T13:52:53.771Z,7.94
2022-12-11T13:55:22.787Z,7.98
2022-12-11T13:57:49.396Z,7.90
2022-12-11T14:00:21.197Z,7.77
2022-12-11T14:02:48.333Z,7.55
2022-12-11T14:05:15.113Z,7.46
2022-12-11T14:08:02.131Z,7.52
2022-12-11T14:10:32.081Z,7.40
2022-12-11T14:12:58.610Z,7.24
2022-12-11T14:15:26.663Z,7.19
2022-12-11T14:17:54.074Z,7.14
2022-12-11T14:20:24.002Z,7.13
2022-12-11T14:22:51.134Z,6.87
2022-12-11T14:25:26.333Z,6.93
2022-12-11T14:27:54.508Z,7.01
2022-12-11T14:30:26.676Z,7.02
2022-12-11T14:32:56.144Z,7.08
2022-12-11T14:35:37.086Z,7.17
2022-12-11T14:38:22.485Z,7.15
2022-12-11T14:40:52.847Z,7.01
2022-12-11T14:43:22.786Z,6.66
2022-12-11T14:45:53.644Z,6.44
2022-12-11T14:48:23.301Z,6.26
2022-12-11T14:50:54.350Z,5.99
2022-12-11T14:53:34.505Z,5.88
2022-12-11T14:56:03.254Z,5.44
2022-12-11T14:58:30.740Z,5.25
2022-12-11T15:01:02.185Z,5.39
2022-12-11T15:03:31.838Z,5.24
2022-12-11T15:05:59.216Z,5.15
2022-12-11T15:08:33.203Z,4.95
2022-12-11T15:11:03.934Z,4.88
2022-12-11T15:13:31.366Z,4.94
2022-12-11T15:15:58.598Z,5.00
2022-12-11T15:18:36.272Z,5.13
2022-12-11T15:21:06.362Z,5.31
2022-12-11T15:23:37.969Z,5.72
2022-12-11T15:26:04.834Z,5.86
2022-12-11T15:28:33.391Z,5.68
2022-12-11T15:31:01.540Z,5.57
2022-12-11T15:33:34.063Z,5.60
2022-12-11T15:36:05.893Z,5.46
2022-12-11T15:38:34.827Z,5.41
2022-12-11T15:41:01.933Z,5.46
2022-12-11T15:43:30.828Z,5.51
2022-12-11T15:45:57.433Z,5.60
2022-12-11T15:48:24.150Z,5.63
2022-12-11T15:50:51.002Z,5.69
2022-12-11T15:53:17.578Z,5.84
2022-12-11T15:55:44.356Z,5.73
2022-12-11T15:58:18.896Z,5.74
2022-12-11T16:00:46.191Z,6.00
2022-12-11T16:03:13.987Z,6.22
2022-12-11T16:05:41.304Z,6.19
2022-12-11T16:08:12.268Z,6.26
2022-12-11T16:10:38.792Z,6.30
2022-12-11T16:13:05.325Z,6.14
2022-12-11T16:15:31.889Z,6.35
2022-12-11T16:18:02.625Z,6.57
2022-12-11T16:20:30.446Z,6.68
2022-12-11T16:23:17.607Z,6.50
2022-12-11T16:25:58.514Z,6.17
2022-12-11T16:28:25.168Z,6.32
2022-12-11T16:30:51.737Z,6.14
2022-12-11T16:33:18.453Z,5.80
2022-12-11T16:35:44.987Z,5.85
2022-12-11T16:38:11.607Z,5.78
2022-12-11T16:40:38.392Z,5.41
2022-12-11T16:43:05.167Z,5.59
2022-12-11T16:45:32.565Z,5.41
2022-12-11T16:48:01.855Z,5.23
2022-12-11T16:50:28.588Z,5.25
2022-12-11T16:52:55.947Z,5.29
2022-12-11T16:55:22.474Z,5.33
2022-12-11T16:57:49.213Z,5.46
2022-12-11T17:00:16.232Z,5.44
2022-12-11T17:02:43.347Z,5.63
2022-12-11T17:05:10.700Z,5.72
2022-12-11T17:07:37.709Z,5.78
2022-12-11T17:10:04.569Z,5.91
2022-12-11T17:12:31.251Z,6.07
2022-12-11T17:14:57.922Z,6.00
2022-12-11T17:17:24.838Z,5.78
2022-12-11T17:19:51.403Z,5.88
2022-12-11T17:22:18.511Z,5.97
2022-12-11T17:24:45.086Z,5.92
2022-12-11T17:27:12.034Z,6.13
2022-12-11T17:29:39.590Z,6.19
2022-12-11T17:32:06.379Z,6.44
2022-12-11T17:34:37.841Z,6.65
2022-12-11T17:37:05.661Z,6.71
2022-12-11T17:39:32.387Z,6.68
2022-12-11T17:41:58.907Z,6.75
2022-12-11T17:44:26.177Z,6.73
2022-12-11T17:46:52.866Z,6.30
2022-12-11T17:49:19.573Z,6.42
2022-12-11T17:51:47.254Z,6.42
2022-12-11T17:54:14.065Z,6.51
2022-12-11T17:56:40.839Z,6.49
2022-12-11T17:59:07.369Z,6.39
2022-12-11T18:01:34.149Z,6.48
2022-12-11T18:04:01.406Z,6.47
2022-12-11T18:06:28.929Z,6.33
2022-12-11T18:08:56.817Z,6.46
2022-12-11T18:11:23.751Z,6.45
2022-12-11T18:13:52.053Z,6.29
2022-12-11T18:16:24.655Z,6.43
2022-12-11T18:18:51.637Z,6.76
2022-12-11T18:21:20.909Z,6.88
2022-12-11T18:23:49.617Z,6.92
2022-12-11T18:26:17.677Z,6.96
2022-12-11T18:28:44.715Z,7.04
2022-12-11T18:31:13.022Z,7.09
2022-12-11T18:33:40.808Z,7.02
2022-12-11T18:36:07.657Z,6.85
2022-12-11T18:38:34.217Z,6.87
2022-12-11T18:41:04.761Z,6.67
2022-12-11T18:43:31.289Z,6.90
2022-12-11T18:45:57.942Z,7.12
2022-12-11T18:48:24.448Z,7.08
2022-12-11T18:50:51.670Z,7.14
2022-12-11T18:53:19.025Z,7.07
2022-12-11T18:55:46.792Z,7.04
2022-12-11T18:58:15.571Z,7.01
2022-12-11T19:00:42.894Z,7.04
2022-12-11T19:03:10.176Z,6.75
2022-12-11T19:05:39.737Z,6.72
2022-12-11T19:08:06.372Z,6.82
2022-12-11T19:10:33.056Z,6.90
2022-12-11T19:12:59.636Z,6.52
2022-12-11T19:15:27.193Z,6.24
2022-12-11T19:17:53.886Z,6.11
2022-12-11T19:23:07.129Z,5.92
2022-12-11T19:25:34.183Z,5.88
2022-12-11T19:28:01.215Z,5.75
2022-12-11T19:30:27.999Z,5.54
2022-12-11T19:32:54.636Z,5.28
2022-12-11T19:35:21.346Z,5.03
2022-12-11T19:37:48.006Z,4.81
2022-12-11T19:40:15.140Z,4.41
2022-12-11T19:42:41.801Z,4.58
2022-12-11T19:45:09.918Z,4.58
2022-12-11T19:47:36.906Z,4.66
2022-12-11T19:50:04.003Z,4.75
2022-12-11T19:52:30.585Z,4.74
2022-12-11T19:55:00.330Z,4.84
2022-12-11T19:57:27.027Z,4.79
2022-12-11T19:59:57.227Z,4.76
2022-12-11T20:02:24.537Z,4.52
2022-12-11T20:04:51.361Z,4.50
2022-12-11T20:07:18.424Z,4.73
2022-12-11T20:09:44.989Z,5.18
2022-12-11T20:12:11.986Z,5.11
2022-12-11T20:14:38.820Z,5.28
2022-12-11T20:17:14.346Z,5.32
2022-12-11T20:19:41.626Z,5.39
2022-12-11T20:22:08.628Z,5.46
2022-12-11T20:24:35.645Z,5.34
2022-12-11T20:27:02.643Z,5.23
2022-12-11T20:29:29.263Z,5.18
2022-12-11T20:31:58.878Z,5.03
2022-12-11T20:34:26.320Z,5.14
2022-12-11T20:36:53.514Z,5.15
2022-12-11T20:39:20.331Z,4.81
2022-12-11T20:41:46.975Z,4.90
2022-12-11T20:44:14.119Z,4.85
2022-12-11T20:46:41.106Z,5.02
2022-12-11T20:49:12.105Z,4.83
2022-12-11T20:51:39.225Z,4.97
2022-12-11T20:54:05.926Z,4.87
2022-12-11T20:56:32.709Z,4.96
2022-12-11T20:59:00.120Z,4.97
2022-12-11T21:01:28.164Z,5.16
2022-12-11T21:03:54.913Z,5.12
2022-12-11T21:06:25.190Z,5.20
2022-12-11T21:08:52.510Z,5.26
2022-12-11T21:11:19.726Z,5.19
2022-12-11T21:13:50.675Z,5.28
2022-12-11T21:16:18.131Z,5.65
2022-12-11T21:18:45.990Z,5.96
2022-12-11T21:21:13.311Z,6.04
2022-12-11T21:23:40.049Z,6.37
2022-12-11T21:26:06.630Z,6.56
2022-12-11T21:28:35.440Z,6.75
2022-12-11T21:31:03.915Z,6.64
2022-12-11T21:33:31.096Z,6.52
2022-12-11T21:35:58.565Z,6.25
2022-12-11T21:38:25.706Z,6.19
2022-12-11T21:40:53.153Z,6.24
2022-12-11T21:43:19.955Z,6.19
2022-12-11T21:46:02.658Z,6.11
2022-12-11T21:48:29.553Z,6.08
2022-12-11T21:51:03.416Z,6.21
2022-12-11T21:53:30.004Z,6.18
2022-12-11T21:55:57.166Z,6.11
2022-12-11T21:58:23.776Z,6.10
2022-12-11T22:00:50.510Z,6.05
2022-12-11T22:03:17.668Z,6.22
2022-12-11T22:05:44.191Z,5.83
2022-12-11T22:08:10.875Z,5.49
2022-12-11T22:10:37.622Z,5.32
2022-12-11T22:13:04.520Z,4.81
2022-12-11T22:15:31.960Z,4.60
2022-12-11T22:17:58.610Z,4.64
2022-12-11T22:20:25.268Z,4.49
2022-12-11T22:22:51.860Z,4.27
2022-12-11T22:25:18.418Z,4.12
2022-12-11T22:27:44.900Z,3.94
2022-12-11T22:30:11.774Z,3.83
2022-12-11T22:32:38.856Z,3.62
2022-12-11T22:35:05.959Z,3.78
2022-12-11T22:37:32.671Z,3.93
2022-12-11T22:39:59.319Z,3.81
2022-12-11T22:42:26.178Z,3.86
2022-12-11T22:44:52.843Z,3.87
2022-12-11T22:47:19.377Z,3.68
2022-12-11T22:49:46.013Z,3.55
2022-12-11T22:52:12.861Z,3.67
2022-12-11T22:54:40.006Z,3.67
2022-12-11T22:57:06.786Z,3.64
2022-12-11T22:59:33.595Z,3.65
2022-12-11T23:02:00.210Z,3.55
2022-12-11T23:04:26.895Z,3.29
2022-12-11T23:06:53.510Z,3.26
2022-12-11T23:09:20.211Z,3.16
2022-12-11T23:11:46.730Z,3.14
2022-12-11T23:14:14.812Z,3.40
2022-12-11T23:16:41.831Z,3.86
2022-12-11T23:19:09.037Z,4.31
2022-12-11T23:21:36.107Z,4.68
2022-12-11T23:24:03.376Z,5.07
2022-12-11T23:26:30.686Z,5.50
2022-12-11T23:28:57.937Z,5.82
2022-12-11T23:31:25.710Z,5.76
2022-12-11T23:33:52.814Z,5.72
2022-12-11T23:36:19.496Z,6.01
2022-12-11T23:38:50.981Z,6.12
2022-12-11T23:41:21.443Z,6.25
2022-12-11T23:43:48.299Z,6.29
2022-12-11T23:46:20.236Z,6.33
2022-12-11T23:48:47.775Z,6.36
2022-12-11T23:51:16.298Z,6.56
2022-12-11T23:53:43.224Z,6.59
2022-12-11T23:56:11.928Z,6.87
2022-12-11T23:58:39.167Z,6.98
